Козиково

Карта отелей и гостиниц, располагающихся рядом с аэропортом Козиково :

Козиково Марий Эл 56° 42' 53.46" N, 45° 55' 43.9212" E
Код аэродрома ИКАО
ZA63
Код аэродрома RU
ЗА63
Координаты
N56.71485° E045.92887°
Превышение над уровнем моря
73
Основная полоса
05/23
Курс магнитный
052/232
Длина основной ВПП
425
Ширина основной ВПП
20
Покрытие основной ВПП
Нетвёрдое (грунт)
Освещение ВПП
Нет
Тип: 
Аэродром
Класс аэродрома: 
Принадлежность: 
ГА
Статус: 
Недействующий
Сайт: 
E-mail аэродрома: 
Страна: 
Россия
Регион: 
Марий Эл
Город: 
Дополнительная информация: 

Найти трансфер

С помощью этой формы Вы можете найти трансфер из аэропорта Козиково в город, аэропорт или вокзал:

Карта места

Javascript is required to view this map.

Погода в аэропортах:

Авиационная погода в аэропорту Сокол

Регион: 
Погода METAR: 
UHMM 170900Z 11002MPS 4900 -SHSN BKN010 OVC015CB M24/M26 Q1007 R10/490140 NOSIG RMK QFE741 R28/09001MPS
Время наблюдения
2021-01-17T09:00:00Z
Температура C
-24.0
Точка росы
-26.0
Направление ветра
110
Скорость ветра (узлы)
4
Метео видимость
3.04
Явления погоды
-SHSN
Условия полета
MVFR
Аэропорт подробнее: 

Авиационная погода в Кастамону

Регион: 
Погода METAR: 
LTAL 150750Z 00000KT 7000 -SN FEW010 BKN030 OVC080 M03/M06 Q1006 R18/0///51
Время наблюдения
2021-01-15T07:50:00Z
Температура C
-3.0
Точка росы
-6.0
Направление ветра
0
Скорость ветра (узлы)
0
Метео видимость
4.35
Явления погоды
-SN
Условия полета
MVFR

Авиационная погода в Минеральные Воды

Регион: 
Погода METAR: 
URMM 170900Z 10010MPS 7000 -SN OVC006 M01/M02 Q1003 R12/420142 NOSIG RMK MT OBSC QFE724/0966
Время наблюдения
2021-01-17T09:00:00Z
Температура C
-1.0
Точка росы
-2.0
Направление ветра
100
Скорость ветра (узлы)
19
Метео видимость
4.35
Явления погоды
-SN
Условия полета
IFR
Аэропорт подробнее: 

Авиационная погода в Гомеле

Регион: 
Погода METAR: 
UMGG 170900Z 33004MPS 6000 -SHSN OVC045CB M16/M19 Q1014 R28/450535 NOSIG
Время наблюдения
2021-01-17T09:00:00Z
Температура C
-16.0
Точка росы
-19.0
Направление ветра
330
Скорость ветра (узлы)
8
Метео видимость
3.73
Явления погоды
-SHSN
Условия полета
MVFR
Аэропорт подробнее: